sensor_id;sensor_type;location;lat;lon;timestamp;temperature;humidity
11474;DHT22;5793;52.238;13.438;2023-06-04T00:00:03;7.60;99.90
11474;DHT22;5793;52.238;13.438;2023-06-04T00:02:31;7.50;99.90
11474;DHT22;5793;52.238;13.438;2023-06-04T00:05:00;7.50;99.90
11474;DHT22;5793;52.238;13.438;2023-06-04T00:07:28;7.40;99.90
11474;DHT22;5793;52.238;13.438;2023-06-04T00:09:56;7.40;99.90
11474;DHT22;5793;52.238;13.438;2023-06-04T00:12:24;7.30;99.90
11474;DHT22;5793;52.238;13.438;2023-06-04T00:14:51;7.20;99.90
11474;DHT22;5793;52.238;13.438;2023-06-04T00:17:21;7.20;99.90
11474;DHT22;5793;52.238;13.438;2023-06-04T00:19:48;7.20;99.90
11474;DHT22;5793;52.238;13.438;2023-06-04T00:22:16;7.10;99.90
11474;DHT22;5793;52.238;13.438;2023-06-04T00:24:44;7.20;99.90
11474;DHT22;5793;52.238;13.438;2023-06-04T00:27:12;7.30;99.90
11474;DHT22;5793;52.238;13.438;2023-06-04T00:29:40;7.30;99.90
11474;DHT22;5793;52.238;13.438;2023-06-04T00:32:08;7.30;99.90
11474;DHT22;5793;52.238;13.438;2023-06-04T00:34:37;7.20;99.90
11474;DHT22;5793;52.238;13.438;2023-06-04T00:37:05;7.10;99.90
11474;DHT22;5793;52.238;13.438;2023-06-04T00:39:33;6.90;99.90
11474;DHT22;5793;52.238;13.438;2023-06-04T00:42:01;6.80;99.90
11474;DHT22;5793;52.238;13.438;2023-06-04T00:44:29;6.70;99.90
11474;DHT22;5793;52.238;13.438;2023-06-04T00:46:57;6.60;99.90
11474;DHT22;5793;52.238;13.438;2023-06-04T00:49:25;6.50;99.90
11474;DHT22;5793;52.238;13.438;2023-06-04T00:51:55;6.50;99.90
11474;DHT22;5793;52.238;13.438;2023-06-04T00:54:23;6.50;99.90
11474;DHT22;5793;52.238;13.438;2023-06-04T00:56:51;6.40;99.90
11474;DHT22;5793;52.238;13.438;2023-06-04T00:59:19;6.30;99.90
11474;DHT22;5793;52.238;13.438;2023-06-04T01:01:52;6.30;99.90
11474;DHT22;5793;52.238;13.438;2023-06-04T01:04:27;6.20;99.90
11474;DHT22;5793;52.238;13.438;2023-06-04T01:06:57;6.20;99.90
11474;DHT22;5793;52.238;13.438;2023-06-04T01:09:26;6.20;99.90
11474;DHT22;5793;52.238;13.438;2023-06-04T01:11:54;6.10;99.90
11474;DHT22;5793;52.238;13.438;2023-06-04T01:14:24;6.20;99.90
11474;DHT22;5793;52.238;13.438;2023-06-04T01:16:57;6.20;99.90
11474;DHT22;5793;52.238;13.438;2023-06-04T01:19:53;6.10;99.90
11474;DHT22;5793;52.238;13.438;2023-06-04T01:22:36;6.00;99.90
11474;DHT22;5793;52.238;13.438;2023-06-04T01:25:12;6.00;99.90
11474;DHT22;5793;52.238;13.438;2023-06-04T01:27:48;5.90;99.90
11474;DHT22;5793;52.238;13.438;2023-06-04T01:30:17;6.00;99.90
11474;DHT22;5793;52.238;13.438;2023-06-04T01:32:45;6.00;99.90
11474;DHT22;5793;52.238;13.438;2023-06-04T01:35:14;5.90;99.90
11474;DHT22;5793;52.238;13.438;2023-06-04T01:37:43;5.90;99.90
11474;DHT22;5793;52.238;13.438;2023-06-04T01:40:11;5.80;99.90
11474;DHT22;5793;52.238;13.438;2023-06-04T01:42:40;5.80;99.90
11474;DHT22;5793;52.238;13.438;2023-06-04T01:45:09;5.80;99.90
11474;DHT22;5793;52.238;13.438;2023-06-04T01:47:37;5.80;99.90
11474;DHT22;5793;52.238;13.438;2023-06-04T01:50:06;5.90;99.90
11474;DHT22;5793;52.238;13.438;2023-06-04T01:52:35;5.90;99.90
11474;DHT22;5793;52.238;13.438;2023-06-04T01:55:05;6.00;99.90
11474;DHT22;5793;52.238;13.438;2023-06-04T01:57:34;6.00;99.90
11474;DHT22;5793;52.238;13.438;2023-06-04T02:00:03;6.00;99.90
11474;DHT22;5793;52.238;13.438;2023-06-04T02:02:34;6.00;99.90
11474;DHT22;5793;52.238;13.438;2023-06-04T02:05:04;5.90;99.90
11474;DHT22;5793;52.238;13.438;2023-06-04T02:07:34;5.80;99.90
11474;DHT22;5793;52.238;13.438;2023-06-04T02:10:06;5.80;99.90
11474;DHT22;5793;52.238;13.438;2023-06-04T02:12:37;5.70;99.90
11474;DHT22;5793;52.238;13.438;2023-06-04T02:15:06;5.70;99.90
11474;DHT22;5793;52.238;13.438;2023-06-04T02:17:34;5.70;99.90
11474;DHT22;5793;52.238;13.438;2023-06-04T02:20:05;5.70;99.90
11474;DHT22;5793;52.238;13.438;2023-06-04T02:22:36;5.60;99.90
11474;DHT22;5793;52.238;13.438;2023-06-04T02:25:06;5.50;99.90
11474;DHT22;5793;52.238;13.438;2023-06-04T02:27:35;5.50;99.90
11474;DHT22;5793;52.238;13.438;2023-06-04T02:30:04;5.50;99.90
11474;DHT22;5793;52.238;13.438;2023-06-04T02:32:32;5.40;99.90
11474;DHT22;5793;52.238;13.438;2023-06-04T02:35:03;5.40;99.90
11474;DHT22;5793;52.238;13.438;2023-06-04T02:37:31;5.30;99.90
11474;DHT22;5793;52.238;13.438;2023-06-04T02:39:59;5.20;99.90
11474;DHT22;5793;52.238;13.438;2023-06-04T02:42:28;5.20;99.90
11474;DHT22;5793;52.238;13.438;2023-06-04T02:44:56;5.10;99.90
11474;DHT22;5793;52.238;13.438;2023-06-04T02:47:23;5.10;99.90
11474;DHT22;5793;52.238;13.438;2023-06-04T02:49:51;5.00;99.90
11474;DHT22;5793;52.238;13.438;2023-06-04T02:52:19;5.10;99.90
11474;DHT22;5793;52.238;13.438;2023-06-04T02:54:49;5.00;99.90
11474;DHT22;5793;52.238;13.438;2023-06-04T02:57:17;5.00;99.90
11474;DHT22;5793;52.238;13.438;2023-06-04T02:59:46;5.00;99.90
11474;DHT22;5793;52.238;13.438;2023-06-04T03:02:14;4.90;99.90
11474;DHT22;5793;52.238;13.438;2023-06-04T03:04:42;4.90;99.90
11474;DHT22;5793;52.238;13.438;2023-06-04T03:07:10;4.90;99.90
11474;DHT22;5793;52.238;13.438;2023-06-04T03:09:38;4.90;99.90
11474;DHT22;5793;52.238;13.438;2023-06-04T03:12:07;4.90;99.90
11474;DHT22;5793;52.238;13.438;2023-06-04T03:14:35;4.90;99.90
11474;DHT22;5793;52.238;13.438;2023-06-04T03:17:05;4.90;99.90
11474;DHT22;5793;52.238;13.438;2023-06-04T03:19:38;5.00;99.90
11474;DHT22;5793;52.238;13.438;2023-06-04T03:22:08;5.00;99.90
11474;DHT22;5793;52.238;13.438;2023-06-04T03:24:38;5.00;99.90
11474;DHT22;5793;52.238;13.438;2023-06-04T03:27:07;5.00;99.90
11474;DHT22;5793;52.238;13.438;2023-06-04T03:29:36;5.00;99.90
11474;DHT22;5793;52.238;13.438;2023-06-04T03:32:07;5.00;99.90
11474;DHT22;5793;52.238;13.438;2023-06-04T03:34:35;5.00;99.90
11474;DHT22;5793;52.238;13.438;2023-06-04T03:37:03;5.00;99.90
11474;DHT22;5793;52.238;13.438;2023-06-04T03:39:32;5.00;99.90
11474;DHT22;5793;52.238;13.438;2023-06-04T03:41:59;5.00;99.90
11474;DHT22;5793;52.238;13.438;2023-06-04T03:44:27;5.00;99.90
11474;DHT22;5793;52.238;13.438;2023-06-04T03:46:55;5.00;99.90
11474;DHT22;5793;52.238;13.438;2023-06-04T03:49:25;5.20;99.90
11474;DHT22;5793;52.238;13.438;2023-06-04T03:51:53;5.10;99.90
11474;DHT22;5793;52.238;13.438;2023-06-04T03:54:21;5.20;99.90
11474;DHT22;5793;52.238;13.438;2023-06-04T03:56:49;5.10;99.90
11474;DHT22;5793;52.238;13.438;2023-06-04T03:59:17;5.10;99.90
11474;DHT22;5793;52.238;13.438;2023-06-04T04:01:45;5.20;99.90
11474;DHT22;5793;52.238;13.438;2023-06-04T04:04:12;5.30;99.90
11474;DHT22;5793;52.238;13.438;2023-06-04T04:06:42;5.40;99.90
11474;DHT22;5793;52.238;13.438;2023-06-04T04:09:10;5.40;99.90
11474;DHT22;5793;52.238;13.438;2023-06-04T04:11:38;5.50;99.90
11474;DHT22;5793;52.238;13.438;2023-06-04T04:14:05;5.60;99.90
11474;DHT22;5793;52.238;13.438;2023-06-04T04:16:33;5.60;99.90
11474;DHT22;5793;52.238;13.438;2023-06-04T04:19:01;5.70;99.90
11474;DHT22;5793;52.238;13.438;2023-06-04T04:21:29;5.70;99.90
11474;DHT22;5793;52.238;13.438;2023-06-04T04:23:58;5.90;99.90
11474;DHT22;5793;52.238;13.438;2023-06-04T04:26:26;6.10;99.90
11474;DHT22;5793;52.238;13.438;2023-06-04T04:28:54;6.30;99.90
11474;DHT22;5793;52.238;13.438;2023-06-04T04:33:55;6.60;99.90
11474;DHT22;5793;52.238;13.438;2023-06-04T04:36:23;6.70;99.90
11474;DHT22;5793;52.238;13.438;2023-06-04T04:38:51;6.90;99.90
11474;DHT22;5793;52.238;13.438;2023-06-04T04:41:23;7.20;99.90
11474;DHT22;5793;52.238;13.438;2023-06-04T04:43:53;7.30;99.90
11474;DHT22;5793;52.238;13.438;2023-06-04T04:46:21;7.50;99.90
11474;DHT22;5793;52.238;13.438;2023-06-04T04:48:49;7.60;99.90
11474;DHT22;5793;52.238;13.438;2023-06-04T04:51:16;7.60;99.90
11474;DHT22;5793;52.238;13.438;2023-06-04T04:53:44;7.60;99.90
11474;DHT22;5793;52.238;13.438;2023-06-04T04:56:12;7.70;99.90
11474;DHT22;5793;52.238;13.438;2023-06-04T04:58:41;7.60;99.90
11474;DHT22;5793;52.238;13.438;2023-06-04T05:01:09;7.70;99.90
11474;DHT22;5793;52.238;13.438;2023-06-04T05:03:37;7.80;99.90
11474;DHT22;5793;52.238;13.438;2023-06-04T05:06:05;7.90;99.90
11474;DHT22;5793;52.238;13.438;2023-06-04T05:08:33;8.00;99.90
11474;DHT22;5793;52.238;13.438;2023-06-04T05:11:01;8.10;99.90
11474;DHT22;5793;52.238;13.438;2023-06-04T05:13:28;8.20;99.90
11474;DHT22;5793;52.238;13.438;2023-06-04T05:15:57;8.40;99.90
11474;DHT22;5793;52.238;13.438;2023-06-04T05:18:26;8.50;99.90
11474;DHT22;5793;52.238;13.438;2023-06-04T05:20:56;8.50;99.90
11474;DHT22;5793;52.238;13.438;2023-06-04T05:23:24;8.70;99.90
11474;DHT22;5793;52.238;13.438;2023-06-04T05:25:52;8.70;99.90
11474;DHT22;5793;52.238;13.438;2023-06-04T05:28:21;8.90;99.90
11474;DHT22;5793;52.238;13.438;2023-06-04T05:30:51;8.90;99.90
11474;DHT22;5793;52.238;13.438;2023-06-04T05:33:21;9.10;99.90
11474;DHT22;5793;52.238;13.438;2023-06-04T05:35:49;9.20;99.90
11474;DHT22;5793;52.238;13.438;2023-06-04T05:38:18;9.30;99.90
11474;DHT22;5793;52.238;13.438;2023-06-04T05:40:46;9.40;99.90
11474;DHT22;5793;52.238;13.438;2023-06-04T05:43:14;9.50;99.90
11474;DHT22;5793;52.238;13.438;2023-06-04T05:45:42;9.60;99.90
11474;DHT22;5793;52.238;13.438;2023-06-04T05:48:10;9.80;99.90
11474;DHT22;5793;52.238;13.438;2023-06-04T05:50:39;9.90;99.90
11474;DHT22;5793;52.238;13.438;2023-06-04T05:53:07;10.00;99.90
11474;DHT22;5793;52.238;13.438;2023-06-04T05:55:35;10.20;99.90
11474;DHT22;5793;52.238;13.438;2023-06-04T05:58:06;10.40;99.90
11474;DHT22;5793;52.238;13.438;2023-06-04T06:00:33;10.50;99.90
11474;DHT22;5793;52.238;13.438;2023-06-04T06:03:01;10.60;99.90
11474;DHT22;5793;52.238;13.438;2023-06-04T06:05:32;10.80;99.90
11474;DHT22;5793;52.238;13.438;2023-06-04T06:08:01;10.90;99.90
11474;DHT22;5793;52.238;13.438;2023-06-04T06:10:29;11.10;99.90
11474;DHT22;5793;52.238;13.438;2023-06-04T06:12:57;11.20;99.90
11474;DHT22;5793;52.238;13.438;2023-06-04T06:15:27;11.50;99.90
11474;DHT22;5793;52.238;13.438;2023-06-04T06:17:56;11.70;99.90
11474;DHT22;5793;52.238;13.438;2023-06-04T06:20:24;11.80;99.90
11474;DHT22;5793;52.238;13.438;2023-06-04T06:22:52;11.90;99.90
11474;DHT22;5793;52.238;13.438;2023-06-04T06:25:21;12.10;99.90
11474;DHT22;5793;52.238;13.438;2023-06-04T06:27:48;12.30;99.90
11474;DHT22;5793;52.238;13.438;2023-06-04T06:30:16;12.50;99.90
11474;DHT22;5793;52.238;13.438;2023-06-04T06:32:45;12.60;99.90
11474;DHT22;5793;52.238;13.438;2023-06-04T06:35:15;12.80;99.90
11474;DHT22;5793;52.238;13.438;2023-06-04T06:37:43;12.90;99.90
11474;DHT22;5793;52.238;13.438;2023-06-04T06:40:11;13.10;99.90
11474;DHT22;5793;52.238;13.438;2023-06-04T06:42:40;13.30;99.90
11474;DHT22;5793;52.238;13.438;2023-06-04T06:45:08;13.40;99.90
11474;DHT22;5793;52.238;13.438;2023-06-04T06:47:36;13.60;99.90
11474;DHT22;5793;52.238;13.438;2023-06-04T06:50:05;13.80;99.90
11474;DHT22;5793;52.238;13.438;2023-06-04T06:52:33;13.90;99.90
11474;DHT22;5793;52.238;13.438;2023-06-04T06:55:01;14.00;99.90
11474;DHT22;5793;52.238;13.438;2023-06-04T06:57:29;14.20;99.90
11474;DHT22;5793;52.238;13.438;2023-06-04T06:59:58;14.40;99.90
11474;DHT22;5793;52.238;13.438;2023-06-04T07:02:26;14.60;99.90
11474;DHT22;5793;52.238;13.438;2023-06-04T07:04:55;14.70;99.90
11474;DHT22;5793;52.238;13.438;2023-06-04T07:07:23;14.90;99.90
11474;DHT22;5793;52.238;13.438;2023-06-04T07:09:51;15.00;99.90
11474;DHT22;5793;52.238;13.438;2023-06-04T07:12:19;15.20;99.90
11474;DHT22;5793;52.238;13.438;2023-06-04T07:14:46;15.40;99.90
11474;DHT22;5793;52.238;13.438;2023-06-04T07:17:15;15.60;99.90
11474;DHT22;5793;52.238;13.438;2023-06-04T07:19:43;15.80;99.90
11474;DHT22;5793;52.238;13.438;2023-06-04T07:22:11;16.00;99.90
11474;DHT22;5793;52.238;13.438;2023-06-04T07:24:39;16.10;99.90
11474;DHT22;5793;52.238;13.438;2023-06-04T07:27:10;16.30;99.90
11474;DHT22;5793;52.238;13.438;2023-06-04T07:29:39;16.50;99.90
11474;DHT22;5793;52.238;13.438;2023-06-04T07:32:07;16.60;99.90
11474;DHT22;5793;52.238;13.438;2023-06-04T07:34:37;16.70;99.90
11474;DHT22;5793;52.238;13.438;2023-06-04T07:37:05;16.90;99.90
11474;DHT22;5793;52.238;13.438;2023-06-04T07:39:34;17.00;99.90
11474;DHT22;5793;52.238;13.438;2023-06-04T07:42:04;17.20;99.90
11474;DHT22;5793;52.238;13.438;2023-06-04T07:44:32;17.40;99.90
11474;DHT22;5793;52.238;13.438;2023-06-04T07:47:00;17.60;99.90
11474;DHT22;5793;52.238;13.438;2023-06-04T07:49:28;17.80;99.90
11474;DHT22;5793;52.238;13.438;2023-06-04T07:51:57;18.10;99.60
11474;DHT22;5793;52.238;13.438;2023-06-04T07:54:25;18.20;95.40
11474;DHT22;5793;52.238;13.438;2023-06-04T07:56:53;18.40;95.60
11474;DHT22;5793;52.238;13.438;2023-06-04T07:59:23;18.50;95.90
11474;DHT22;5793;52.238;13.438;2023-06-04T08:01:51;18.70;95.80
11474;DHT22;5793;52.238;13.438;2023-06-04T08:04:19;18.80;93.40
11474;DHT22;5793;52.238;13.438;2023-06-04T08:06:47;18.90;93.20
11474;DHT22;5793;52.238;13.438;2023-06-04T08:09:17;19.00;92.40
11474;DHT22;5793;52.238;13.438;2023-06-04T08:11:45;19.20;92.50
11474;DHT22;5793;52.238;13.438;2023-06-04T08:14:13;19.30;91.10
11474;DHT22;5793;52.238;13.438;2023-06-04T08:16:41;19.50;92.20
11474;DHT22;5793;52.238;13.438;2023-06-04T08:19:09;19.50;87.30
11474;DHT22;5793;52.238;13.438;2023-06-04T08:21:37;19.50;86.70
11474;DHT22;5793;52.238;13.438;2023-06-04T08:24:09;19.70;89.20
11474;DHT22;5793;52.238;13.438;2023-06-04T08:26:39;19.80;89.20
11474;DHT22;5793;52.238;13.438;2023-06-04T08:29:07;20.00;86.70
11474;DHT22;5793;52.238;13.438;2023-06-04T08:31:35;20.10;85.50
11474;DHT22;5793;52.238;13.438;2023-06-04T08:34:02;20.30;84.60
11474;DHT22;5793;52.238;13.438;2023-06-04T08:36:31;20.50;76.70
11474;DHT22;5793;52.238;13.438;2023-06-04T08:39:00;20.80;77.00
11474;DHT22;5793;52.238;13.438;2023-06-04T08:41:29;21.40;77.50
11474;DHT22;5793;52.238;13.438;2023-06-04T08:43:58;22.40;69.20
11474;DHT22;5793;52.238;13.438;2023-06-04T08:46:28;23.80;62.60
11474;DHT22;5793;52.238;13.438;2023-06-04T08:49:00;27.10;54.30
11474;DHT22;5793;52.238;13.438;2023-06-04T08:51:29;29.90;46.80
11474;DHT22;5793;52.238;13.438;2023-06-04T08:54:00;31.70;41.60
11474;DHT22;5793;52.238;13.438;2023-06-04T08:56:28;32.50;41.70
11474;DHT22;5793;52.238;13.438;2023-06-04T08:59:02;33.30;37.70
11474;DHT22;5793;52.238;13.438;2023-06-04T09:01:31;34.20;36.70
11474;DHT22;5793;52.238;13.438;2023-06-04T09:04:00;35.50;36.30
11474;DHT22;5793;52.238;13.438;2023-06-04T09:06:29;36.60;34.20
11474;DHT22;5793;52.238;13.438;2023-06-04T09:08:58;36.80;33.80
11474;DHT22;5793;52.238;13.438;2023-06-04T09:11:31;36.30;34.00
11474;DHT22;5793;52.238;13.438;2023-06-04T09:14:06;36.20;32.50
11474;DHT22;5793;52.238;13.438;2023-06-04T09:16:42;36.40;31.50
11474;DHT22;5793;52.238;13.438;2023-06-04T09:19:10;37.60;32.10
11474;DHT22;5793;52.238;13.438;2023-06-04T09:21:51;38.90;30.00
11474;DHT22;5793;52.238;13.438;2023-06-04T09:24:21;38.40;30.60
11474;DHT22;5793;52.238;13.438;2023-06-04T09:26:49;38.10;29.10
11474;DHT22;5793;52.238;13.438;2023-06-04T09:29:18;38.30;30.30
11474;DHT22;5793;52.238;13.438;2023-06-04T09:31:47;37.20;30.00
11474;DHT22;5793;52.238;13.438;2023-06-04T09:34:27;37.10;30.10
11474;DHT22;5793;52.238;13.438;2023-06-04T09:36:55;37.30;29.80
11474;DHT22;5793;52.238;13.438;2023-06-04T09:39:23;37.10;30.30
11474;DHT22;5793;52.238;13.438;2023-06-04T09:41:58;37.50;30.20
11474;DHT22;5793;52.238;13.438;2023-06-04T09:44:28;37.50;30.80
11474;DHT22;5793;52.238;13.438;2023-06-04T09:46:57;38.50;29.20
11474;DHT22;5793;52.238;13.438;2023-06-04T09:49:26;39.80;29.20
11474;DHT22;5793;52.238;13.438;2023-06-04T09:51:53;40.70;28.80
11474;DHT22;5793;52.238;13.438;2023-06-04T09:54:21;40.70;28.90
11474;DHT22;5793;52.238;13.438;2023-06-04T09:56:49;41.50;27.90
11474;DHT22;5793;52.238;13.438;2023-06-04T09:59:17;40.50;28.20
11474;DHT22;5793;52.238;13.438;2023-06-04T10:01:47;40.70;28.00
11474;DHT22;5793;52.238;13.438;2023-06-04T10:04:15;40.00;29.00
11474;DHT22;5793;52.238;13.438;2023-06-04T10:06:43;40.00;28.00
11474;DHT22;5793;52.238;13.438;2023-06-04T10:09:13;40.50;27.70
11474;DHT22;5793;52.238;13.438;2023-06-04T10:11:47;38.20;28.10
11474;DHT22;5793;52.238;13.438;2023-06-04T10:14:21;39.00;28.60
11474;DHT22;5793;52.238;13.438;2023-06-04T10:16:51;37.50;28.00
11474;DHT22;5793;52.238;13.438;2023-06-04T10:19:19;38.80;28.90
11474;DHT22;5793;52.238;13.438;2023-06-04T10:21:47;39.60;28.60
11474;DHT22;5793;52.238;13.438;2023-06-04T10:24:16;40.10;28.50
11474;DHT22;5793;52.238;13.438;2023-06-04T10:26:44;40.10;28.20
11474;DHT22;5793;52.238;13.438;2023-06-04T10:29:12;40.80;29.10
11474;DHT22;5793;52.238;13.438;2023-06-04T10:31:42;41.40;27.70
11474;DHT22;5793;52.238;13.438;2023-06-04T10:34:13;41.70;28.10
11474;DHT22;5793;52.238;13.438;2023-06-04T10:36:45;42.10;26.90
11474;DHT22;5793;52.238;13.438;2023-06-04T10:39:13;42.00;26.90
11474;DHT22;5793;52.238;13.438;2023-06-04T10:41:41;41.80;26.60
11474;DHT22;5793;52.238;13.438;2023-06-04T10:44:09;41.80;26.80
11474;DHT22;5793;52.238;13.438;2023-06-04T10:46:40;41.70;26.70
11474;DHT22;5793;52.238;13.438;2023-06-04T10:49:10;41.10;27.10
11474;DHT22;5793;52.238;13.438;2023-06-04T10:51:39;41.30;26.80
11474;DHT22;5793;52.238;13.438;2023-06-04T10:54:07;41.60;27.40
11474;DHT22;5793;52.238;13.438;2023-06-04T10:56:35;41.20;27.80
11474;DHT22;5793;52.238;13.438;2023-06-04T10:59:13;40.40;27.60
11474;DHT22;5793;52.238;13.438;2023-06-04T11:01:41;40.90;26.40
11474;DHT22;5793;52.238;13.438;2023-06-04T11:04:18;39.80;26.90
11474;DHT22;5793;52.238;13.438;2023-06-04T11:06:48;38.60;28.00
11474;DHT22;5793;52.238;13.438;2023-06-04T11:09:28;37.60;28.70
11474;DHT22;5793;52.238;13.438;2023-06-04T11:12:00;36.90;28.50
11474;DHT22;5793;52.238;13.438;2023-06-04T11:14:28;36.60;29.50
11474;DHT22;5793;52.238;13.438;2023-06-04T11:16:56;35.00;30.60
11474;DHT22;5793;52.238;13.438;2023-06-04T11:19:24;34.10;32.60
11474;DHT22;5793;52.238;13.438;2023-06-04T11:22:04;32.80;34.10
11474;DHT22;5793;52.238;13.438;2023-06-04T11:24:32;31.20;36.00
11474;DHT22;5793;52.238;13.438;2023-06-04T11:27:00;29.50;36.00
11474;DHT22;5793;52.238;13.438;2023-06-04T11:29:49;28.90;37.60
11474;DHT22;5793;52.238;13.438;2023-06-04T11:32:21;28.20;39.10
11474;DHT22;5793;52.238;13.438;2023-06-04T11:34:49;27.80;40.10
11474;DHT22;5793;52.238;13.438;2023-06-04T11:37:18;27.80;41.60
11474;DHT22;5793;52.238;13.438;2023-06-04T11:39:46;27.50;41.10
11474;DHT22;5793;52.238;13.438;2023-06-04T11:42:14;26.80;40.60
11474;DHT22;5793;52.238;13.438;2023-06-04T11:44:42;26.50;40.50
11474;DHT22;5793;52.238;13.438;2023-06-04T11:47:15;26.60;41.60
11474;DHT22;5793;52.238;13.438;2023-06-04T11:49:43;26.40;43.20
11474;DHT22;5793;52.238;13.438;2023-06-04T11:52:11;26.70;41.30
11474;DHT22;5793;52.238;13.438;2023-06-04T11:54:40;26.60;42.90
11474;DHT22;5793;52.238;13.438;2023-06-04T11:57:08;26.70;41.70
11474;DHT22;5793;52.238;13.438;2023-06-04T11:59:36;26.30;41.20
11474;DHT22;5793;52.238;13.438;2023-06-04T12:02:07;26.50;40.20
11474;DHT22;5793;52.238;13.438;2023-06-04T12:04:35;26.60;42.30
11474;DHT22;5793;52.238;13.438;2023-06-04T12:07:03;26.00;41.10
11474;DHT22;5793;52.238;13.438;2023-06-04T12:09:33;25.90;42.70
11474;DHT22;5793;52.238;13.438;2023-06-04T12:12:04;25.70;41.50
11474;DHT22;5793;52.238;13.438;2023-06-04T12:14:33;25.80;41.90
11474;DHT22;5793;52.238;13.438;2023-06-04T12:17:05;25.70;41.20
11474;DHT22;5793;52.238;13.438;2023-06-04T12:19:45;26.00;41.40
11474;DHT22;5793;52.238;13.438;2023-06-04T12:22:13;26.10;43.60
11474;DHT22;5793;52.238;13.438;2023-06-04T12:24:47;26.10;43.10
11474;DHT22;5793;52.238;13.438;2023-06-04T12:27:17;25.80;41.30
11474;DHT22;5793;52.238;13.438;2023-06-04T12:29:54;25.40;42.60
11474;DHT22;5793;52.238;13.438;2023-06-04T12:32:22;25.20;41.90
11474;DHT22;5793;52.238;13.438;2023-06-04T12:34:50;25.20;42.40
11474;DHT22;5793;52.238;13.438;2023-06-04T12:37:18;25.20;41.90
11474;DHT22;5793;52.238;13.438;2023-06-04T12:39:46;25.10;43.80
11474;DHT22;5793;52.238;13.438;2023-06-04T12:42:14;25.10;42.30
11474;DHT22;5793;52.238;13.438;2023-06-04T12:44:43;25.20;42.70
11474;DHT22;5793;52.238;13.438;2023-06-04T12:47:11;25.10;45.20
11474;DHT22;5793;52.238;13.438;2023-06-04T12:49:39;25.10;43.50
11474;DHT22;5793;52.238;13.438;2023-06-04T12:52:07;24.90;43.80
11474;DHT22;5793;52.238;13.438;2023-06-04T12:54:35;24.80;42.40
11474;DHT22;5793;52.238;13.438;2023-06-04T12:57:03;24.70;42.00
11474;DHT22;5793;52.238;13.438;2023-06-04T12:59:31;24.70;42.80
11474;DHT22;5793;52.238;13.438;2023-06-04T13:02:00;24.90;43.00
11474;DHT22;5793;52.238;13.438;2023-06-04T13:04:28;24.90;42.50
11474;DHT22;5793;52.238;13.438;2023-06-04T13:06:56;24.90;45.10
11474;DHT22;5793;52.238;13.438;2023-06-04T13:09:26;24.70;44.80
11474;DHT22;5793;52.238;13.438;2023-06-04T13:11:55;24.60;42.60
11474;DHT22;5793;52.238;13.438;2023-06-04T13:14:23;24.70;44.10
11474;DHT22;5793;52.238;13.438;2023-06-04T13:16:51;24.70;44.60
11474;DHT22;5793;52.238;13.438;2023-06-04T13:19:20;24.60;43.10
11474;DHT22;5793;52.238;13.438;2023-06-04T13:21:48;24.60;43.80
11474;DHT22;5793;52.238;13.438;2023-06-04T13:24:16;24.70;43.80
11474;DHT22;5793;52.238;13.438;2023-06-04T13:26:44;24.70;45.60
11474;DHT22;5793;52.238;13.438;2023-06-04T13:29:11;24.50;42.70
11474;DHT22;5793;52.238;13.438;2023-06-04T13:31:40;24.20;42.90
11474;DHT22;5793;52.238;13.438;2023-06-04T13:34:08;24.00;43.20
11474;DHT22;5793;52.238;13.438;2023-06-04T13:36:54;24.10;43.60
11474;DHT22;5793;52.238;13.438;2023-06-04T13:39:22;24.00;45.70
11474;DHT22;5793;52.238;13.438;2023-06-04T13:41:50;24.10;46.00
11474;DHT22;5793;52.238;13.438;2023-06-04T13:44:18;24.20;46.20
11474;DHT22;5793;52.238;13.438;2023-06-04T13:46:46;24.00;44.80
11474;DHT22;5793;52.238;13.438;2023-06-04T13:49:14;24.00;44.90
11474;DHT22;5793;52.238;13.438;2023-06-04T13:51:42;24.00;45.00
11474;DHT22;5793;52.238;13.438;2023-06-04T13:54:12;24.00;43.80
11474;DHT22;5793;52.238;13.438;2023-06-04T13:56:39;24.00;45.30
11474;DHT22;5793;52.238;13.438;2023-06-04T13:59:07;24.00;44.30
11474;DHT22;5793;52.238;13.438;2023-06-04T14:01:35;24.00;43.60
11474;DHT22;5793;52.238;13.438;2023-06-04T14:04:03;24.10;43.50
11474;DHT22;5793;52.238;13.438;2023-06-04T14:06:34;24.30;45.50
11474;DHT22;5793;52.238;13.438;2023-06-04T14:09:03;24.30;43.20
11474;DHT22;5793;52.238;13.438;2023-06-04T14:11:33;24.40;46.30
11474;DHT22;5793;52.238;13.438;2023-06-04T14:14:01;24.40;45.30
11474;DHT22;5793;52.238;13.438;2023-06-04T14:16:29;24.10;44.30
11474;DHT22;5793;52.238;13.438;2023-06-04T14:18:57;24.00;44.30
11474;DHT22;5793;52.238;13.438;2023-06-04T14:21:26;24.00;43.50
11474;DHT22;5793;52.238;13.438;2023-06-04T14:23:54;23.90;42.80
11474;DHT22;5793;52.238;13.438;2023-06-04T14:26:22;23.90;43.50
11474;DHT22;5793;52.238;13.438;2023-06-04T14:28:52;23.90;44.20
11474;DHT22;5793;52.238;13.438;2023-06-04T14:31:20;23.80;44.10
11474;DHT22;5793;52.238;13.438;2023-06-04T14:33:48;23.60;43.50
11474;DHT22;5793;52.238;13.438;2023-06-04T14:36:16;23.70;45.30
11474;DHT22;5793;52.238;13.438;2023-06-04T14:38:44;23.80;46.60
11474;DHT22;5793;52.238;13.438;2023-06-04T14:41:12;24.10;45.40
11474;DHT22;5793;52.238;13.438;2023-06-04T14:43:40;24.20;46.10
11474;DHT22;5793;52.238;13.438;2023-06-04T14:46:09;24.20;46.70
11474;DHT22;5793;52.238;13.438;2023-06-04T14:48:37;24.20;45.00
11474;DHT22;5793;52.238;13.438;2023-06-04T14:51:05;24.20;45.30
11474;DHT22;5793;52.238;13.438;2023-06-04T14:53:33;24.20;45.20
11474;DHT22;5793;52.238;13.438;2023-06-04T14:56:01;24.30;45.30
11474;DHT22;5793;52.238;13.438;2023-06-04T14:58:29;24.20;45.10
11474;DHT22;5793;52.238;13.438;2023-06-04T15:00:58;24.20;44.20
11474;DHT22;5793;52.238;13.438;2023-06-04T15:03:29;24.30;43.70
11474;DHT22;5793;52.238;13.438;2023-06-04T15:05:57;24.30;44.80
11474;DHT22;5793;52.238;13.438;2023-06-04T15:08:44;24.00;45.90
11474;DHT22;5793;52.238;13.438;2023-06-04T15:11:11;24.00;46.30
11474;DHT22;5793;52.238;13.438;2023-06-04T15:13:39;24.00;45.40
11474;DHT22;5793;52.238;13.438;2023-06-04T15:16:07;24.10;47.10
11474;DHT22;5793;52.238;13.438;2023-06-04T15:18:36;24.10;46.00
11474;DHT22;5793;52.238;13.438;2023-06-04T15:21:04;24.10;45.90
11474;DHT22;5793;52.238;13.438;2023-06-04T15:23:33;24.00;45.60
11474;DHT22;5793;52.238;13.438;2023-06-04T15:26:01;24.00;46.50
11474;DHT22;5793;52.238;13.438;2023-06-04T15:28:28;23.90;46.00
11474;DHT22;5793;52.238;13.438;2023-06-04T15:30:56;23.80;44.50
11474;DHT22;5793;52.238;13.438;2023-06-04T15:33:24;23.80;44.30
11474;DHT22;5793;52.238;13.438;2023-06-04T15:35:53;23.70;46.10
11474;DHT22;5793;52.238;13.438;2023-06-04T15:38:22;23.70;44.80
11474;DHT22;5793;52.238;13.438;2023-06-04T15:40:49;23.80;44.30
11474;DHT22;5793;52.238;13.438;2023-06-04T15:43:17;23.80;44.30
11474;DHT22;5793;52.238;13.438;2023-06-04T15:45:45;23.70;45.70
11474;DHT22;5793;52.238;13.438;2023-06-04T15:48:13;23.60;47.10
11474;DHT22;5793;52.238;13.438;2023-06-04T15:50:41;23.70;48.50